Decoded Metar for LFBH (LA ROCHELLE/LALE in FRANCE) (IATA:N/A) | Meteo·Mobile Aviation Weather
aviador You're here:

LFBH Decoded Metar

LA ROCHELLE/LALE in FRANCE
Report Time2019-01-18 12:00:00
UTC Time2019-01-18 12:35:34
Flight Rules vfr VFR
Wind150° at 05 kt
W.Decomp.*RWY 09: 2.4 kt HW 4.4 kt RCW
W.Rank150° ranks 21
Current wind is below 150° avg. (8.3)
Visibility9999 m
Phenomena:N/A
Clouds:N/A
Expected CloudBase > 1,200 ft AGL from Temp-Dew spread
CeilingNone
Temp07°C (ISA -8)
Dew Point04°C (81% RH)
AAT3.9°C
QNH1017 hPa
Density Alt-948 ft
Elevation33 ft
Report Wrong Elevation
Raw Report
LFBH 181200Z AUTO 15005KT CAVOK 07/04 Q1017 NOSIG=

Extra information for LFBH:More info

Metar Taf Metar & Taf Last 4 Metars F.Rules Stats Wind Profile Meteogram Temp Stats Airport Information Weather charts Add Link Nearby VenuesMetar ALERT Operation Metar Decoded Social comments